Main page
METAR-TAF:

METAR-TAF

Airports :

Sofia Airport

Sofia, Bulgaria

latitude: 42-39N, longitude: 023-23E, elevation: 586 m

Current weather observation

The report was made 26 minutes ago, at 17:00 UTC
Wind 9 kt from the East/Northeast
Temperature 27°C
Humidity 34%
Pressure 1019 hPa
Visibility 10 km or more
no clouds below 1500 m and no cumulonimbus

METAR: LBSF 191700Z 06009KT CAVOK 27/10 Q1019 NOSIG

Time: 20:26 (17:26 UTC)

Forecast

The report was made 6 hours and 26 minutes ago, at 11:00 UTC
Forecast valid from 19 at 12 UTC to 20 at 12 UTC
Wind 10 kt from the East
Visibility 10 km or more
no clouds below 1500 m and no cumulonimbus
Becoming
from 19 at 18 UTC to 19 at 20 UTC
Wind 4 kt from variable directions
Becoming
from 20 at 09 UTC to 20 at 11 UTC
Wind 10 kt from the East

TAF: LBSF 191100Z 1912/2012 09010KT CAVOK BECMG 1918/1920 VRB04KT BECMG 2009/2011 09010KT

Weather observations and forecasts of more than 4000 airports (METAR and TAF reports).

The available stations are represented by yellow and red dots on the map.

Hover mouse over dot to see the name of the station.

Then click to see weather observations and forecasts.

To change the map : click on the green buttons with a black cross to zoom in, on the green button with a dash to zoom out, or on the green arrows for adjacent maps.


METAR-TAF: